createdAt,value
2022-12-07T00:00:49.624Z,4.67
2022-12-07T00:01:49.846Z,4.66
2022-12-07T00:02:49.601Z,4.67
2022-12-07T00:03:49.646Z,4.67
2022-12-07T00:04:49.578Z,4.67
2022-12-07T00:05:49.561Z,4.67
2022-12-07T00:06:49.730Z,4.67
2022-12-07T00:07:49.786Z,4.69
2022-12-07T00:08:49.520Z,4.70
2022-12-07T00:09:49.515Z,4.70
2022-12-07T00:10:49.490Z,4.69
2022-12-07T00:11:49.492Z,4.70
2022-12-07T00:12:49.671Z,4.69
2022-12-07T00:13:49.458Z,4.72
2022-12-07T00:14:49.449Z,4.72
2022-12-07T00:15:49.438Z,4.72
2022-12-07T00:16:49.663Z,4.72
2022-12-07T00:17:49.406Z,4.72
2022-12-07T00:18:49.389Z,4.72
2022-12-07T00:19:49.388Z,4.72
2022-12-07T00:20:49.366Z,4.72
2022-12-07T00:21:49.566Z,4.72
2022-12-07T00:22:49.340Z,4.73
2022-12-07T00:23:49.326Z,4.73
2022-12-07T00:24:49.326Z,4.75
2022-12-07T00:25:49.304Z,4.77
2022-12-07T00:26:49.505Z,4.77
2022-12-07T00:27:49.278Z,4.77
2022-12-07T00:28:49.444Z,4.75
2022-12-07T00:29:49.275Z,4.77
2022-12-07T00:30:49.235Z,4.77
2022-12-07T00:31:49.328Z,4.77
2022-12-07T00:32:49.416Z,4.77
2022-12-07T00:33:49.435Z,4.77
2022-12-07T00:34:49.189Z,4.77
2022-12-07T00:35:49.173Z,4.78
2022-12-07T00:36:49.164Z,4.78
2022-12-07T00:37:49.352Z,4.80
2022-12-07T00:38:49.125Z,4.78
2022-12-07T00:39:49.337Z,4.78
2022-12-07T00:40:49.104Z,4.80
2022-12-07T00:41:49.092Z,4.80
2022-12-07T00:42:49.080Z,4.80
2022-12-07T00:43:49.082Z,4.80
2022-12-07T00:44:49.271Z,4.80
2022-12-07T00:45:49.072Z,4.82
2022-12-07T00:46:49.040Z,4.82
2022-12-07T00:47:49.020Z,4.82
2022-12-07T00:48:49.023Z,4.84
2022-12-07T00:49:49.229Z,4.82
2022-12-07T00:50:48.969Z,4.80
2022-12-07T00:51:48.972Z,4.80
2022-12-07T00:52:48.949Z,4.80
2022-12-07T00:53:48.942Z,4.80
2022-12-07T00:54:49.138Z,4.80
2022-12-07T00:55:49.129Z,4.80
2022-12-07T00:56:48.896Z,4.82
2022-12-07T00:57:48.887Z,4.82
2022-12-07T00:58:48.871Z,4.82
2022-12-07T00:59:48.864Z,4.85
2022-12-07T01:00:49.048Z,4.84
2022-12-07T01:01:48.910Z,4.82
2022-12-07T01:02:48.851Z,4.82
2022-12-07T01:03:48.815Z,4.85
2022-12-07T01:04:48.796Z,4.85
2022-12-07T01:05:49.018Z,4.84
2022-12-07T01:06:48.778Z,4.84
2022-12-07T01:07:48.854Z,4.85
2022-12-07T01:08:48.737Z,4.85
2022-12-07T01:09:48.725Z,4.84
2022-12-07T01:10:48.712Z,4.86
2022-12-07T01:11:48.925Z,4.85
2022-12-07T01:12:48.686Z,4.86
2022-12-07T01:13:48.674Z,4.88
2022-12-07T01:14:48.664Z,4.86
2022-12-07T01:15:48.662Z,4.86
2022-12-07T01:16:48.737Z,4.88
2022-12-07T01:17:48.624Z,4.88
2022-12-07T01:18:48.873Z,4.89
2022-12-07T01:19:48.834Z,4.88
2022-12-07T01:20:48.584Z,4.89
2022-12-07T01:21:48.578Z,4.89
2022-12-07T01:22:48.553Z,4.88
2022-12-07T01:23:48.542Z,4.89
2022-12-07T01:24:48.714Z,4.89
2022-12-07T01:25:48.522Z,4.91
2022-12-07T01:26:48.512Z,4.89
2022-12-07T01:27:48.501Z,4.91
2022-12-07T01:28:48.481Z,4.91
2022-12-07T01:29:48.720Z,4.89
2022-12-07T01:30:48.507Z,4.89
2022-12-07T01:31:48.450Z,4.91
2022-12-07T01:32:48.430Z,4.89
2022-12-07T01:33:48.423Z,4.92
2022-12-07T01:34:48.607Z,4.92
2022-12-07T01:35:48.390Z,4.92
2022-12-07T01:36:48.391Z,4.94
2022-12-07T01:37:48.369Z,4.94
2022-12-07T01:38:48.349Z,4.92
2022-12-07T01:39:48.561Z,4.94
2022-12-07T01:40:48.328Z,4.96
2022-12-07T01:41:48.318Z,4.96
2022-12-07T01:42:48.298Z,4.94
2022-12-07T01:43:48.489Z,4.96
2022-12-07T01:44:48.477Z,4.97
2022-12-07T01:45:48.501Z,4.97
2022-12-07T01:46:48.268Z,4.97
2022-12-07T01:47:48.343Z,4.97
2022-12-07T01:48:48.223Z,4.99
2022-12-07T01:49:48.211Z,4.99
2022-12-07T01:50:48.207Z,4.97
2022-12-07T01:51:48.407Z,4.97
2022-12-07T01:52:48.177Z,4.99
2022-12-07T01:53:48.159Z,4.99
2022-12-07T01:54:48.146Z,4.99
2022-12-07T01:55:48.124Z,4.99
2022-12-07T01:56:48.124Z,5.00
2022-12-07T01:57:48.316Z,5.00
2022-12-07T01:58:48.096Z,4.99
2022-12-07T01:59:48.073Z,4.99
2022-12-07T02:00:48.073Z,4.99
2022-12-07T02:01:48.111Z,4.99
2022-12-07T02:02:48.318Z,4.99
2022-12-07T02:03:48.024Z,4.97
2022-12-07T02:04:48.014Z,4.99
2022-12-07T02:05:47.998Z,5.00
2022-12-07T02:06:47.993Z,4.99
2022-12-07T02:07:48.300Z,4.99
2022-12-07T02:08:47.962Z,4.99
2022-12-07T02:09:47.943Z,5.00
2022-12-07T02:10:47.935Z,4.99
2022-12-07T02:11:47.921Z,5.00
2022-12-07T02:12:47.947Z,4.99
2022-12-07T02:13:47.891Z,4.99
2022-12-07T02:14:48.076Z,4.99
2022-12-07T02:15:47.919Z,4.96
2022-12-07T02:16:47.861Z,4.94
2022-12-07T02:17:47.841Z,4.96
2022-12-07T02:18:48.041Z,4.96
2022-12-07T02:19:47.812Z,4.96
2022-12-07T02:20:47.829Z,4.96
2022-12-07T02:21:47.798Z,4.94
2022-12-07T02:22:47.781Z,4.96
2022-12-07T02:23:47.769Z,4.94
2022-12-07T02:24:47.961Z,4.94
2022-12-07T02:25:47.738Z,4.97
2022-12-07T02:26:47.740Z,4.96
2022-12-07T02:27:47.947Z,4.94
2022-12-07T02:28:47.699Z,4.94
2022-12-07T02:29:47.687Z,4.92
2022-12-07T02:30:47.710Z,4.92
2022-12-07T02:31:47.875Z,4.92
2022-12-07T02:32:47.671Z,4.91
2022-12-07T02:33:47.825Z,4.91
2022-12-07T02:34:47.617Z,4.91
2022-12-07T02:35:47.635Z,4.89
2022-12-07T02:36:47.600Z,4.86
2022-12-07T02:37:47.585Z,4.88
2022-12-07T02:38:47.564Z,4.86
2022-12-07T02:39:47.785Z,4.88
2022-12-07T02:40:47.545Z,4.86
2022-12-07T02:41:47.534Z,4.85
2022-12-07T02:42:47.515Z,4.85
2022-12-07T02:43:47.709Z,4.86
2022-12-07T02:44:47.494Z,4.85
2022-12-07T02:45:47.485Z,4.86
2022-12-07T02:46:47.569Z,4.85
2022-12-07T02:47:47.463Z,4.85
2022-12-07T02:48:47.454Z,4.86
2022-12-07T02:49:47.431Z,4.86
2022-12-07T02:50:47.412Z,4.85
2022-12-07T02:51:47.404Z,4.85
2022-12-07T02:52:47.392Z,4.85
2022-12-07T02:53:47.601Z,4.85
2022-12-07T02:54:47.391Z,4.85
2022-12-07T02:55:47.353Z,4.85
2022-12-07T02:56:47.335Z,4.84
2022-12-07T02:57:47.329Z,4.85
2022-12-07T02:58:47.311Z,4.85
2022-12-07T02:59:47.513Z,4.84
2022-12-07T03:00:47.328Z,4.84
2022-12-07T03:01:47.356Z,4.82
2022-12-07T03:02:47.348Z,4.80
2022-12-07T03:03:47.248Z,4.82
2022-12-07T03:04:47.250Z,4.80
2022-12-07T03:05:47.218Z,4.80
2022-12-07T03:06:47.212Z,4.80
2022-12-07T03:07:47.432Z,4.80
2022-12-07T03:08:47.179Z,4.80
2022-12-07T03:09:47.172Z,4.77
2022-12-07T03:10:47.178Z,4.78
2022-12-07T03:11:47.145Z,4.78
2022-12-07T03:12:47.125Z,4.77
2022-12-07T03:13:47.116Z,4.77
2022-12-07T03:14:47.325Z,4.75
2022-12-07T03:15:47.131Z,4.75
2022-12-07T03:16:47.079Z,4.77
2022-12-07T03:17:47.279Z,4.73
2022-12-07T03:18:47.044Z,4.73
2022-12-07T03:19:47.042Z,4.73
2022-12-07T03:20:47.017Z,4.72
2022-12-07T03:21:47.014Z,4.72
2022-12-07T03:22:47.205Z,4.70
2022-12-07T03:23:46.994Z,4.70
2022-12-07T03:24:46.975Z,4.69
2022-12-07T03:25:46.975Z,4.69
2022-12-07T03:26:46.952Z,4.66
2022-12-07T03:27:47.133Z,4.66
2022-12-07T03:28:46.924Z,4.66
2022-12-07T03:29:46.907Z,4.65
2022-12-07T03:30:46.945Z,4.63
2022-12-07T03:31:46.881Z,4.62
2022-12-07T03:32:47.128Z,4.62
2022-12-07T03:33:46.891Z,4.59
2022-12-07T03:34:46.851Z,4.58
2022-12-07T03:35:46.847Z,4.58
2022-12-07T03:36:46.816Z,4.55
2022-12-07T03:37:47.026Z,4.54
2022-12-07T03:38:46.792Z,4.51
2022-12-07T03:39:46.780Z,4.51
2022-12-07T03:40:46.789Z,4.48
2022-12-07T03:41:46.750Z,4.48
2022-12-07T03:42:46.740Z,4.45
2022-12-07T03:43:46.730Z,4.45
2022-12-07T03:44:46.708Z,4.42
2022-12-07T03:45:46.889Z,4.42
2022-12-07T03:46:46.751Z,4.41
2022-12-07T03:47:46.678Z,4.40
2022-12-07T03:48:46.694Z,4.40
2022-12-07T03:49:46.646Z,4.37
2022-12-07T03:50:46.667Z,4.37
2022-12-07T03:51:46.630Z,4.36
2022-12-07T03:52:46.616Z,4.33
2022-12-07T03:53:46.603Z,4.33
2022-12-07T03:54:46.595Z,4.32
2022-12-07T03:55:46.780Z,4.30
2022-12-07T03:56:46.566Z,4.30
2022-12-07T03:57:46.556Z,4.29
2022-12-07T03:58:46.546Z,4.29
2022-12-07T03:59:46.724Z,4.27
2022-12-07T04:00:46.504Z,4.26
2022-12-07T04:01:46.575Z,4.27
2022-12-07T04:02:46.532Z,4.24
2022-12-07T04:03:46.686Z,4.23
2022-12-07T04:04:46.453Z,4.23
2022-12-07T04:05:46.444Z,4.23
2022-12-07T04:06:46.423Z,4.20
2022-12-07T04:07:46.452Z,4.22
2022-12-07T04:08:46.433Z,4.22
2022-12-07T04:09:46.583Z,4.22
2022-12-07T04:10:46.373Z,4.20
2022-12-07T04:11:46.552Z,4.22
2022-12-07T04:12:46.343Z,4.18
2022-12-07T04:13:46.351Z,4.20
2022-12-07T04:14:46.320Z,4.22
2022-12-07T04:15:46.572Z,4.22
2022-12-07T04:16:46.316Z,4.23
2022-12-07T04:17:46.293Z,4.23
2022-12-07T04:18:46.271Z,4.23
2022-12-07T04:19:46.300Z,4.23
2022-12-07T04:20:46.239Z,4.22
2022-12-07T04:21:46.242Z,4.22
2022-12-07T04:22:46.219Z,4.22
2022-12-07T04:23:46.210Z,4.22
2022-12-07T04:24:46.409Z,4.22
2022-12-07T04:25:46.198Z,4.23
2022-12-07T04:26:46.167Z,4.22
2022-12-07T04:27:46.159Z,4.22
2022-12-07T04:28:46.139Z,4.20
2022-12-07T04:29:46.339Z,4.18
2022-12-07T04:30:46.386Z,4.20
2022-12-07T04:31:46.146Z,4.20
2022-12-07T04:32:46.100Z,4.20
2022-12-07T04:33:46.086Z,4.18
2022-12-07T04:34:46.087Z,4.18
2022-12-07T04:35:46.057Z,4.18
2022-12-07T04:36:46.061Z,4.20
2022-12-07T04:37:46.057Z,4.18
2022-12-07T04:38:46.015Z,4.18
2022-12-07T04:39:46.006Z,4.20
2022-12-07T04:40:45.985Z,4.18
2022-12-07T04:41:46.014Z,4.18
2022-12-07T04:42:45.954Z,4.18
2022-12-07T04:43:45.958Z,4.18
2022-12-07T04:44:45.926Z,4.18
2022-12-07T04:45:45.924Z,4.16
2022-12-07T04:46:45.963Z,4.16
2022-12-07T04:47:46.144Z,4.18
2022-12-07T04:48:46.085Z,4.20
2022-12-07T04:49:45.866Z,4.15
2022-12-07T04:50:46.484Z,4.16
2022-12-07T04:51:45.845Z,4.16
2022-12-07T04:52:46.046Z,4.16
2022-12-07T04:53:45.814Z,4.18
2022-12-07T04:54:45.813Z,4.18
2022-12-07T04:55:45.792Z,4.16
2022-12-07T04:56:45.987Z,4.18
2022-12-07T04:57:45.762Z,4.18
2022-12-07T04:58:45.754Z,4.15
2022-12-07T04:59:46.253Z,4.18
2022-12-07T05:00:45.991Z,4.18
2022-12-07T05:01:46.004Z,4.18
2022-12-07T05:02:45.911Z,4.18
2022-12-07T05:03:45.691Z,4.16
2022-12-07T05:04:45.679Z,4.18
2022-12-07T05:05:45.660Z,4.18
2022-12-07T05:06:45.649Z,4.16
2022-12-07T05:07:45.912Z,4.16
2022-12-07T05:08:45.627Z,4.18
2022-12-07T05:09:45.830Z,4.16
2022-12-07T05:10:45.598Z,4.18
2022-12-07T05:11:45.589Z,4.18
2022-12-07T05:12:45.602Z,4.15
2022-12-07T05:13:45.561Z,4.16
2022-12-07T05:14:45.547Z,4.15
2022-12-07T05:15:45.536Z,4.15
2022-12-07T05:16:45.610Z,4.16
2022-12-07T05:17:45.537Z,4.16
2022-12-07T05:18:45.497Z,4.16
2022-12-07T05:19:45.487Z,4.14
2022-12-07T05:20:45.476Z,4.15
2022-12-07T05:21:45.454Z,4.16
2022-12-07T05:22:45.659Z,4.15
2022-12-07T05:23:45.693Z,4.15
2022-12-07T05:24:45.431Z,4.16
2022-12-07T05:25:45.404Z,4.15
2022-12-07T05:26:45.596Z,4.14
2022-12-07T05:27:45.387Z,4.14
2022-12-07T05:28:45.364Z,4.15
2022-12-07T05:29:45.354Z,4.14
2022-12-07T05:30:45.343Z,4.14
2022-12-07T05:31:45.398Z,4.14
2022-12-07T05:32:45.605Z,4.12
2022-12-07T05:33:45.293Z,4.12
2022-12-07T05:34:45.314Z,4.11
2022-12-07T05:35:45.272Z,4.11
2022-12-07T05:36:45.265Z,4.09
2022-12-07T05:37:45.283Z,4.09
2022-12-07T05:38:45.259Z,4.09
2022-12-07T05:39:45.442Z,4.08
2022-12-07T05:40:45.215Z,4.09
2022-12-07T05:41:45.190Z,4.09
2022-12-07T05:42:45.198Z,4.09
2022-12-07T05:43:45.172Z,4.08
2022-12-07T05:44:45.186Z,4.08
2022-12-07T05:45:45.217Z,4.08
2022-12-07T05:46:45.138Z,4.08
2022-12-07T05:47:45.118Z,4.05
2022-12-07T05:48:45.111Z,4.08
2022-12-07T05:49:45.339Z,4.08
2022-12-07T05:50:45.089Z,4.06
2022-12-07T05:51:45.086Z,4.05
2022-12-07T05:52:45.057Z,4.04
2022-12-07T05:53:45.047Z,4.05
2022-12-07T05:54:45.077Z,4.05
2022-12-07T05:55:45.017Z,4.04
2022-12-07T05:56:45.010Z,4.05
2022-12-07T05:57:44.995Z,4.05
2022-12-07T05:58:44.980Z,4.04
2022-12-07T05:59:45.009Z,4.05
2022-12-07T06:00:49.520Z,4.05
2022-12-07T06:01:46.004Z,4.05
2022-12-07T06:02:45.050Z,4.02
2022-12-07T06:03:44.919Z,4.04
2022-12-07T06:04:44.908Z,4.04
2022-12-07T06:05:45.170Z,4.00
2022-12-07T06:06:44.941Z,4.00
2022-12-07T06:07:45.122Z,4.02
2022-12-07T06:08:44.854Z,4.00
2022-12-07T06:09:44.834Z,4.02
2022-12-07T06:10:44.827Z,4.02
2022-12-07T06:11:45.023Z,4.02
2022-12-07T06:12:44.795Z,4.00
2022-12-07T06:13:47.414Z,4.04
2022-12-07T06:14:44.785Z,4.04
2022-12-07T06:15:44.774Z,4.04
2022-12-07T06:16:44.818Z,4.02
2022-12-07T06:17:44.945Z,4.02
2022-12-07T06:18:44.724Z,4.02
2022-12-07T06:19:44.714Z,4.04
2022-12-07T06:20:44.693Z,4.02
2022-12-07T06:21:44.702Z,4.04
2022-12-07T06:22:44.693Z,4.04
2022-12-07T06:23:44.653Z,4.05
2022-12-07T06:24:44.649Z,4.05
2022-12-07T06:25:44.841Z,4.04
2022-12-07T06:26:44.629Z,4.05
2022-12-07T06:27:44.613Z,4.04
2022-12-07T06:28:44.592Z,4.02
2022-12-07T06:29:44.575Z,4.04
2022-12-07T06:30:44.571Z,4.04
2022-12-07T06:31:44.808Z,4.02
2022-12-07T06:32:44.539Z,4.02
2022-12-07T06:33:44.519Z,4.02
2022-12-07T06:34:44.551Z,4.00
2022-12-07T06:35:44.502Z,4.02
2022-12-07T06:36:44.488Z,4.02
2022-12-07T06:37:44.657Z,4.00
2022-12-07T06:38:44.467Z,4.00
2022-12-07T06:39:44.449Z,4.02
2022-12-07T06:40:44.444Z,4.00
2022-12-07T06:41:44.417Z,3.98
2022-12-07T06:42:44.437Z,3.98
2022-12-07T06:43:44.421Z,3.98
2022-12-07T06:44:44.377Z,4.00
2022-12-07T06:45:44.436Z,3.98
2022-12-07T06:46:44.551Z,3.97
2022-12-07T06:47:44.525Z,4.00
2022-12-07T06:48:44.325Z,4.00
2022-12-07T06:49:44.324Z,3.98
2022-12-07T06:50:44.325Z,3.98
2022-12-07T06:51:44.295Z,3.97
2022-12-07T06:52:44.497Z,3.97
2022-12-07T06:53:44.264Z,3.98
2022-12-07T06:54:44.484Z,3.98
2022-12-07T06:55:44.534Z,3.97
2022-12-07T06:56:44.249Z,3.98
2022-12-07T06:57:44.215Z,3.98
2022-12-07T06:58:44.202Z,3.97
2022-12-07T06:59:44.190Z,3.97
2022-12-07T07:00:44.413Z,3.96
2022-12-07T07:01:44.271Z,3.96
2022-12-07T07:02:44.192Z,3.96
2022-12-07T07:03:44.144Z,3.96
2022-12-07T07:04:44.134Z,3.96
2022-12-07T07:05:44.337Z,3.94
2022-12-07T07:06:44.102Z,3.94
2022-12-07T07:08:05.231Z,3.94
2022-12-07T07:08:45.180Z,3.96
2022-12-07T07:09:44.074Z,3.96
2022-12-07T07:10:44.271Z,3.94
2022-12-07T07:11:44.038Z,3.94
2022-12-07T07:12:44.032Z,3.93
2022-12-07T07:13:44.017Z,3.91
2022-12-07T07:14:44.000Z,3.91
2022-12-07T07:15:44.198Z,3.90
2022-12-07T07:16:44.070Z,3.90
2022-12-07T07:17:43.960Z,3.90
2022-12-07T07:18:43.940Z,3.90
2022-12-07T07:19:43.945Z,3.88
2022-12-07T07:20:43.945Z,3.90
2022-12-07T07:21:43.935Z,3.90
2022-12-07T07:22:43.896Z,3.90
2022-12-07T07:23:44.111Z,3.90
2022-12-07T07:24:43.863Z,3.90
2022-12-07T07:25:43.859Z,3.91
2022-12-07T07:26:43.838Z,3.91
2022-12-07T07:27:44.018Z,3.88
2022-12-07T07:28:43.815Z,3.88
2022-12-07T07:29:44.037Z,3.90
2022-12-07T07:30:43.892Z,3.90
2022-12-07T07:31:43.790Z,3.88
2022-12-07T07:32:43.785Z,3.87
2022-12-07T07:33:43.757Z,3.90
2022-12-07T07:34:43.736Z,3.88
2022-12-07T07:35:43.733Z,3.88
2022-12-07T07:36:43.714Z,3.88
2022-12-07T07:37:43.906Z,3.88
2022-12-07T07:38:43.686Z,3.88
2022-12-07T07:39:43.697Z,3.90
2022-12-07T07:40:43.904Z,3.88
2022-12-07T07:41:43.657Z,3.87
2022-12-07T07:42:43.676Z,3.88
2022-12-07T07:43:43.625Z,3.90
2022-12-07T07:44:43.604Z,3.88
2022-12-07T07:45:43.666Z,3.90
2022-12-07T07:46:43.602Z,3.88
2022-12-07T07:47:43.594Z,3.88
2022-12-07T07:48:43.562Z,3.90
2022-12-07T07:49:47.952Z,3.88
2022-12-07T07:50:43.549Z,3.90
2022-12-07T07:51:43.527Z,3.90
2022-12-07T07:52:43.512Z,3.90
2022-12-07T07:53:43.701Z,3.88
2022-12-07T07:54:43.480Z,3.88
2022-12-07T07:55:43.472Z,3.87
2022-12-07T07:56:43.479Z,3.86
2022-12-07T07:57:43.441Z,3.86
2022-12-07T07:58:43.435Z,3.84
2022-12-07T07:59:43.413Z,3.84
2022-12-07T08:00:43.610Z,3.84
2022-12-07T08:01:43.468Z,3.86
2022-12-07T08:02:43.383Z,3.84
2022-12-07T08:03:43.370Z,3.83
2022-12-07T08:04:43.609Z,3.80
2022-12-07T08:05:43.341Z,3.80
2022-12-07T08:06:43.365Z,3.83
2022-12-07T08:07:43.361Z,3.83
2022-12-07T08:08:43.306Z,3.83
2022-12-07T08:09:43.286Z,3.86
2022-12-07T08:10:43.297Z,3.86
2022-12-07T08:11:43.263Z,3.86
2022-12-07T08:12:43.247Z,3.87
2022-12-07T08:13:43.227Z,3.87
2022-12-07T08:14:43.225Z,3.88
2022-12-07T08:15:43.432Z,3.91
2022-12-07T08:16:43.198Z,3.90
2022-12-07T08:17:43.176Z,3.90
2022-12-07T08:18:43.177Z,3.91
2022-12-07T08:19:43.146Z,3.91
2022-12-07T08:20:43.338Z,3.91
2022-12-07T08:21:43.133Z,3.90
2022-12-07T08:22:43.142Z,3.90
2022-12-07T08:23:43.107Z,3.90
2022-12-07T08:24:43.107Z,3.91
2022-12-07T08:25:43.083Z,3.91
2022-12-07T08:26:43.097Z,3.93
2022-12-07T08:27:43.051Z,3.94
2022-12-07T08:28:43.292Z,3.96
2022-12-07T08:29:43.023Z,3.96
2022-12-07T08:30:43.070Z,3.98
2022-12-07T08:31:43.112Z,3.98
2022-12-07T08:32:42.982Z,3.97
2022-12-07T08:33:42.978Z,4.00
2022-12-07T08:34:42.962Z,4.00
2022-12-07T08:35:42.941Z,4.02
2022-12-07T08:36:42.972Z,4.04
2022-12-07T08:37:42.925Z,4.04
2022-12-07T08:38:51.525Z,4.05
2022-12-07T08:39:43.893Z,4.06
2022-12-07T08:40:43.109Z,4.06
2022-12-07T08:41:42.882Z,4.09
2022-12-07T08:42:43.095Z,4.09
2022-12-07T08:43:42.846Z,4.12
2022-12-07T08:44:42.838Z,4.12
2022-12-07T08:45:42.818Z,4.14
2022-12-07T08:46:42.851Z,4.14
2022-12-07T08:47:42.799Z,4.15
2022-12-07T08:48:42.817Z,4.18
2022-12-07T08:49:42.767Z,4.18
2022-12-07T08:50:47.743Z,4.18
2022-12-07T08:51:43.738Z,4.20
2022-12-07T08:52:42.727Z,4.18
2022-12-07T08:53:42.907Z,4.23
2022-12-07T08:54:42.709Z,4.23
2022-12-07T08:55:42.690Z,4.24
2022-12-07T08:56:42.676Z,4.23
2022-12-07T08:57:42.685Z,4.24
2022-12-07T08:58:42.665Z,4.26
2022-12-07T08:59:42.650Z,4.27
2022-12-07T09:00:42.635Z,4.29
2022-12-07T09:01:42.718Z,4.29
2022-12-07T09:02:42.608Z,4.32
2022-12-07T09:03:42.778Z,4.33
2022-12-07T09:04:42.572Z,4.36
2022-12-07T09:05:42.627Z,4.33
2022-12-07T09:06:42.668Z,4.33
2022-12-07T09:07:42.602Z,4.32
2022-12-07T09:08:42.757Z,4.30
2022-12-07T09:09:42.524Z,4.33
2022-12-07T09:10:42.491Z,4.34
2022-12-07T09:11:42.473Z,4.34
2022-12-07T09:12:42.493Z,4.34
2022-12-07T09:13:42.451Z,4.34
2022-12-07T09:14:42.445Z,4.36
2022-12-07T09:15:42.711Z,4.36
2022-12-07T09:16:42.418Z,4.37
2022-12-07T09:17:42.409Z,4.41
2022-12-07T09:18:42.391Z,4.41
2022-12-07T09:19:42.403Z,4.41
2022-12-07T09:20:42.402Z,4.42
2022-12-07T09:21:42.361Z,4.45
2022-12-07T09:22:42.346Z,4.48
2022-12-07T09:23:42.321Z,4.50
2022-12-07T09:24:42.314Z,4.52
2022-12-07T09:25:42.529Z,4.55
2022-12-07T09:26:42.291Z,4.59
2022-12-07T09:27:42.270Z,4.66
2022-12-07T09:28:42.261Z,4.67
2022-12-07T09:29:42.253Z,4.72
2022-12-07T09:31:14.431Z,4.75
2022-12-07T09:31:43.252Z,4.77
2022-12-07T09:32:42.217Z,4.78
2022-12-07T09:33:42.416Z,4.75
2022-12-07T09:34:42.270Z,4.77
2022-12-07T09:35:42.156Z,4.80
2022-12-07T09:36:42.377Z,4.84
2022-12-07T09:37:42.181Z,4.88
2022-12-07T09:38:42.135Z,4.89
2022-12-07T09:39:47.884Z,4.85
2022-12-07T09:40:43.119Z,4.85
2022-12-07T09:41:42.115Z,4.86
2022-12-07T09:42:42.126Z,4.88
2022-12-07T09:43:42.066Z,4.91
2022-12-07T09:44:42.055Z,4.89
2022-12-07T09:45:47.112Z,4.89
2022-12-07T09:46:43.211Z,4.91
2022-12-07T09:47:42.014Z,4.91
2022-12-07T09:48:42.009Z,4.91
2022-12-07T09:49:42.223Z,4.92
2022-12-07T09:50:41.983Z,4.91
2022-12-07T09:51:41.953Z,4.91
2022-12-07T09:52:41.951Z,4.91
2022-12-07T09:53:41.931Z,4.94
2022-12-07T09:54:41.950Z,4.96
2022-12-07T09:55:41.906Z,4.97
2022-12-07T09:56:42.110Z,5.00
2022-12-07T09:57:42.095Z,5.02
2022-12-07T09:58:41.901Z,5.00
2022-12-07T09:59:41.854Z,5.00
2022-12-07T10:00:41.850Z,5.00
2022-12-07T10:01:42.091Z,5.04
2022-12-07T10:02:41.820Z,5.07
2022-12-07T10:03:41.821Z,5.07
2022-12-07T10:04:41.828Z,5.10
2022-12-07T10:05:41.779Z,5.12
2022-12-07T10:06:41.984Z,5.10
2022-12-07T10:07:41.784Z,5.15
2022-12-07T10:08:41.747Z,5.17
2022-12-07T10:09:41.720Z,5.15
2022-12-07T10:10:41.720Z,5.12
2022-12-07T10:11:41.698Z,5.10
2022-12-07T10:12:41.718Z,5.09
2022-12-07T10:13:41.710Z,5.06
2022-12-07T10:15:06.276Z,5.06
2022-12-07T10:15:42.671Z,5.06
2022-12-07T10:16:41.668Z,5.06
2022-12-07T10:17:42.036Z,5.09
2022-12-07T10:18:41.605Z,5.09
2022-12-07T10:19:41.615Z,5.09
2022-12-07T10:20:41.585Z,5.10
2022-12-07T10:21:41.566Z,5.15
2022-12-07T10:22:41.556Z,5.17
2022-12-07T10:23:41.564Z,5.20
2022-12-07T10:24:41.535Z,5.22
2022-12-07T10:25:41.526Z,5.27
2022-12-07T10:26:41.508Z,5.27
2022-12-07T10:27:41.483Z,5.30
2022-12-07T10:28:42.403Z,5.31
2022-12-07T10:29:41.461Z,5.30
2022-12-07T10:30:41.679Z,5.30
2022-12-07T10:31:41.487Z,5.30
2022-12-07T10:32:41.434Z,5.27
2022-12-07T10:33:41.411Z,5.28
2022-12-07T10:34:44.251Z,5.31
2022-12-07T10:35:41.412Z,5.35
2022-12-07T10:36:41.392Z,5.33
2022-12-07T10:37:41.361Z,5.35
2022-12-07T10:38:41.349Z,5.36
2022-12-07T10:39:41.330Z,5.39
2022-12-07T10:40:46.319Z,5.40
2022-12-07T10:41:42.315Z,5.43
2022-12-07T10:42:41.307Z,5.45
2022-12-07T10:43:41.279Z,5.48
2022-12-07T10:44:41.335Z,5.48
2022-12-07T10:45:52.047Z,5.48
2022-12-07T10:46:42.288Z,5.49
2022-12-07T10:47:41.937Z,5.54
2022-12-07T10:48:41.211Z,5.56
2022-12-07T10:49:41.238Z,5.57
2022-12-07T10:50:41.226Z,5.60
2022-12-07T10:51:41.187Z,5.60
2022-12-07T10:52:41.175Z,5.61
2022-12-07T10:53:41.155Z,5.64
2022-12-07T10:54:41.372Z,5.65
2022-12-07T10:55:41.128Z,5.68
2022-12-07T10:56:41.127Z,5.72
2022-12-07T10:57:41.110Z,5.74
2022-12-07T10:58:41.088Z,5.75
2022-12-07T10:59:41.303Z,5.76
2022-12-07T11:00:41.106Z,5.76
2022-12-07T11:01:41.100Z,5.78
2022-12-07T11:02:41.313Z,5.74
2022-12-07T11:03:41.036Z,5.74
2022-12-07T11:04:41.054Z,5.68
2022-12-07T11:05:41.025Z,5.64
2022-12-07T11:06:41.623Z,5.64
2022-12-07T11:07:41.138Z,5.64
2022-12-07T11:08:41.014Z,5.68
2022-12-07T11:10:07.321Z,5.68
2022-12-07T11:10:42.162Z,5.71
2022-12-07T11:11:40.917Z,5.74
2022-12-07T11:12:40.923Z,5.75
2022-12-07T11:13:40.891Z,5.78
2022-12-07T11:14:40.892Z,5.78
2022-12-07T11:15:41.143Z,5.82
2022-12-07T11:16:40.913Z,5.81
2022-12-07T11:17:40.843Z,5.79
2022-12-07T11:18:40.830Z,5.81
2022-12-07T11:19:40.807Z,5.83
2022-12-07T11:20:40.830Z,5.85
2022-12-07T11:21:40.789Z,5.89
2022-12-07T11:22:40.999Z,5.90
2022-12-07T11:23:40.760Z,5.91
2022-12-07T11:24:40.950Z,5.91
2022-12-07T11:25:40.969Z,5.91
2022-12-07T11:26:40.720Z,5.93
2022-12-07T11:27:40.709Z,5.96
2022-12-07T11:28:40.728Z,5.91
2022-12-07T11:29:40.682Z,5.91
2022-12-07T11:30:40.667Z,5.96
2022-12-07T11:31:40.724Z,5.97
2022-12-07T11:32:40.658Z,5.97
2022-12-07T11:33:40.630Z,5.99
2022-12-07T11:34:40.626Z,6.03
2022-12-07T11:35:40.608Z,6.04
2022-12-07T11:36:40.628Z,6.03
2022-12-07T11:38:40.566Z,6.06
2022-12-07T11:39:40.546Z,6.11
2022-12-07T11:40:40.545Z,6.12
2022-12-07T11:41:40.525Z,6.17
2022-12-07T11:42:40.544Z,6.19
2022-12-07T11:43:40.714Z,6.22
2022-12-07T11:44:40.504Z,6.27
2022-12-07T11:45:40.477Z,6.22
2022-12-07T11:46:40.543Z,6.22
2022-12-07T11:47:40.444Z,6.25
2022-12-07T11:48:40.647Z,6.30
2022-12-07T11:49:40.429Z,6.31
2022-12-07T11:50:40.413Z,6.33
2022-12-07T11:51:40.415Z,6.31
2022-12-07T11:52:40.384Z,6.30
2022-12-07T11:53:40.382Z,6.31
2022-12-07T11:54:40.363Z,6.33
2022-12-07T11:55:40.343Z,6.33
2022-12-07T11:56:40.361Z,6.33
2022-12-07T11:57:40.314Z,6.31
2022-12-07T11:58:40.315Z,6.34
2022-12-07T11:59:40.288Z,6.37
2022-12-07T12:00:40.281Z,6.38
2022-12-07T12:01:40.544Z,6.38
2022-12-07T12:02:40.323Z,6.38
2022-12-07T12:03:40.323Z,6.36
2022-12-07T12:04:40.222Z,6.37
2022-12-07T12:05:40.210Z,6.37
2022-12-07T12:06:40.429Z,6.37
2022-12-07T12:09:41.448Z,6.38
2022-12-07T12:10:40.153Z,6.37
2022-12-07T12:11:40.435Z,6.38
2022-12-07T12:14:43.406Z,6.36
2022-12-07T12:15:41.085Z,6.33
2022-12-07T12:16:40.118Z,6.31
2022-12-07T12:17:40.096Z,6.31
2022-12-07T12:18:40.039Z,6.27
2022-12-07T12:19:40.028Z,6.25
2022-12-07T12:20:40.024Z,6.21
2022-12-07T12:21:39.999Z,6.18
2022-12-07T12:22:40.194Z,6.17
2022-12-07T12:23:39.976Z,6.17
2022-12-07T12:24:39.969Z,6.15
2022-12-07T12:25:39.969Z,6.17
2022-12-07T12:26:40.156Z,6.17
2022-12-07T12:27:39.949Z,6.15
2022-12-07T12:28:42.058Z,6.15
2022-12-07T12:29:39.895Z,6.12
2022-12-07T12:30:39.892Z,6.12
2022-12-07T12:31:39.895Z,6.11
2022-12-07T12:32:39.886Z,6.11
2022-12-07T12:33:40.046Z,6.09
2022-12-07T12:34:40.173Z,6.09
2022-12-07T12:35:39.813Z,6.09
2022-12-07T12:36:39.834Z,6.09
2022-12-07T12:37:39.791Z,6.08
2022-12-07T12:38:39.782Z,6.09
2022-12-07T12:39:39.963Z,6.11
2022-12-07T12:40:40.686Z,6.12
2022-12-07T12:41:39.745Z,6.14
2022-12-07T12:42:39.723Z,6.17
2022-12-07T12:43:39.941Z,6.17
2022-12-07T12:44:39.891Z,6.15
2022-12-07T12:45:39.719Z,6.14
2022-12-07T12:46:39.673Z,6.15
2022-12-07T12:47:39.704Z,6.17
2022-12-07T12:48:39.659Z,6.18
2022-12-07T12:49:39.850Z,6.17
2022-12-07T12:50:39.628Z,6.18
2022-12-07T12:51:39.612Z,6.19
2022-12-07T12:52:39.600Z,6.21
2022-12-07T12:53:39.583Z,6.21
2022-12-07T12:54:39.802Z,6.22
2022-12-07T12:55:39.566Z,6.25
2022-12-07T12:56:39.548Z,6.27
2022-12-07T12:57:39.518Z,6.30
2022-12-07T12:58:39.518Z,6.31
2022-12-07T12:59:39.508Z,6.31
2022-12-07T13:00:39.701Z,6.36
2022-12-07T13:01:39.547Z,6.34
2022-12-07T13:02:39.576Z,6.34
2022-12-07T13:03:39.457Z,6.36
2022-12-07T13:04:39.451Z,6.36
2022-12-07T13:05:39.619Z,6.34
2022-12-07T13:06:39.416Z,6.34
2022-12-07T13:07:39.418Z,6.33
2022-12-07T13:08:39.460Z,6.28
2022-12-07T13:09:39.396Z,6.25
2022-12-07T13:10:39.370Z,6.19
2022-12-07T13:11:39.346Z,6.21
2022-12-07T13:12:39.343Z,6.19
2022-12-07T13:13:39.327Z,6.19
2022-12-07T13:14:39.364Z,6.21
2022-12-07T13:15:39.298Z,6.19
2022-12-07T13:16:39.327Z,6.15
2022-12-07T13:17:39.265Z,6.12
2022-12-07T13:18:39.294Z,6.11
2022-12-07T13:19:39.243Z,6.09
2022-12-07T13:20:39.443Z,6.11
2022-12-07T13:21:39.424Z,6.15
2022-12-07T13:22:39.206Z,6.17
2022-12-07T13:23:39.205Z,6.18